createdAt,value
2019-04-29T00:00:56.550Z,98545.53
2019-04-29T00:03:28.516Z,98547.29
2019-04-29T00:06:00.517Z,98551.73
2019-04-29T00:08:32.507Z,98550.60
2019-04-29T00:11:04.572Z,98548.55
2019-04-29T00:13:36.542Z,98540.95
2019-04-29T00:16:21.624Z,98541.08
2019-04-29T00:19:13.304Z,98546.78
2019-04-29T00:21:45.266Z,98542.20
2019-04-29T00:24:17.260Z,98541.19
2019-04-29T00:26:49.239Z,98541.44
2019-04-29T00:29:21.234Z,98537.13
2019-04-29T00:31:53.170Z,98542.83
2019-04-29T00:34:25.171Z,98541.95
2019-04-29T00:37:04.779Z,98536.63
2019-04-29T00:40:06.987Z,98538.28
2019-04-29T00:42:51.442Z,98543.47
2019-04-29T00:45:23.914Z,98552.45
2019-04-29T00:47:55.878Z,98553.48
2019-04-29T00:50:27.862Z,98551.69
2019-04-29T00:52:59.831Z,98554.35
2019-04-29T00:55:32.732Z,98556.88
2019-04-29T00:58:04.703Z,98559.15
2019-04-29T01:00:39.383Z,98558.77
2019-04-29T01:03:11.371Z,98568.28
2019-04-29T01:05:43.339Z,98573.58
2019-04-29T01:08:15.282Z,98569.89
2019-04-29T01:10:47.261Z,98568.12
2019-04-29T01:13:19.215Z,98569.00
2019-04-29T01:15:51.206Z,98568.37
2019-04-29T01:18:23.148Z,98557.83
2019-04-29T01:20:55.115Z,98562.56
2019-04-29T01:23:27.073Z,98564.59
2019-04-29T01:26:03.077Z,98564.83
2019-04-29T01:28:44.740Z,98566.48
2019-04-29T01:31:29.463Z,98565.57
2019-04-29T01:34:13.563Z,98570.61
2019-04-29T01:36:45.990Z,98565.80
2019-04-29T01:39:19.214Z,98569.88
2019-04-29T01:42:03.287Z,98573.15
2019-04-29T01:44:36.585Z,98566.69
2019-04-29T01:47:08.555Z,98572.38
2019-04-29T01:49:40.525Z,98571.23
2019-04-29T01:52:12.509Z,98574.95
2019-04-29T01:54:44.474Z,98570.88
2019-04-29T01:57:16.443Z,98572.14
2019-04-29T01:59:48.394Z,98579.25
2019-04-29T02:02:20.384Z,98582.58
2019-04-29T02:04:52.313Z,98581.31
2019-04-29T02:07:24.290Z,98577.16
2019-04-29T02:10:05.081Z,98588.92
2019-04-29T02:12:37.087Z,98579.66
2019-04-29T02:15:09.029Z,98584.13
2019-04-29T02:17:40.991Z,98589.70
2019-04-29T02:20:13.073Z,98586.51
2019-04-29T02:22:50.443Z,98584.97
2019-04-29T02:25:27.834Z,98582.52
2019-04-29T02:27:59.799Z,98585.59
2019-04-29T02:30:39.757Z,98587.36
2019-04-29T02:33:11.710Z,98579.48
2019-04-29T02:35:43.719Z,98578.48
2019-04-29T02:38:24.556Z,98576.95
2019-04-29T02:41:05.092Z,98577.07
2019-04-29T02:43:38.650Z,98578.87
2019-04-29T02:46:10.575Z,98581.70
2019-04-29T02:48:42.549Z,98576.95
2019-04-29T02:51:34.098Z,98581.64
2019-04-29T02:54:06.084Z,98572.00
2019-04-29T02:56:39.030Z,98574.69
2019-04-29T02:59:12.019Z,98572.70
2019-04-29T03:01:51.711Z,98573.70
2019-04-29T03:04:25.892Z,98569.52
2019-04-29T03:06:57.817Z,98561.00
2019-04-29T03:09:31.705Z,98560.73
2019-04-29T03:12:03.700Z,98567.73
2019-04-29T03:14:35.621Z,98566.58
2019-04-29T03:17:08.572Z,98562.77
2019-04-29T03:20:00.398Z,98559.20
2019-04-29T03:22:32.473Z,98568.19
2019-04-29T03:25:04.573Z,98570.23
2019-04-29T03:27:36.558Z,98567.66
2019-04-29T03:30:08.985Z,98559.87
2019-04-29T03:32:40.991Z,98558.64
2019-04-29T03:35:13.073Z,98560.91
2019-04-29T03:37:45.002Z,98558.91
2019-04-29T03:40:17.011Z,98557.64
2019-04-29T03:42:48.980Z,98559.67
2019-04-29T03:45:21.025Z,98557.94
2019-04-29T03:47:52.985Z,98562.98
2019-04-29T03:50:24.991Z,98565.55
2019-04-29T03:52:56.890Z,98561.47
2019-04-29T03:55:38.863Z,98562.36
2019-04-29T03:58:02.749Z,98564.45
2019-04-29T04:00:34.711Z,98553.69
2019-04-29T04:03:20.160Z,98553.08
2019-04-29T04:06:06.922Z,98561.81
2019-04-29T04:08:42.173Z,98562.32
2019-04-29T04:11:14.155Z,98570.44
2019-04-29T04:13:46.075Z,98573.97
2019-04-29T04:16:27.139Z,98571.84
2019-04-29T04:19:06.687Z,98579.57
2019-04-29T04:21:38.651Z,98576.03
2019-04-29T04:24:10.616Z,98581.08
2019-04-29T04:26:42.605Z,98580.31
2019-04-29T04:29:14.575Z,98574.27
2019-04-29T04:31:46.591Z,98583.02
2019-04-29T04:34:18.542Z,98579.59
2019-04-29T04:36:50.532Z,98577.83
2019-04-29T04:39:22.507Z,98581.63
2019-04-29T04:41:54.582Z,98581.42
2019-04-29T04:44:46.132Z,98584.39
2019-04-29T04:47:19.120Z,98581.97
2019-04-29T04:49:51.034Z,98591.38
2019-04-29T04:52:23.077Z,98592.64
2019-04-29T04:54:55.351Z,98594.58
2019-04-29T04:57:27.486Z,98589.37
2019-04-29T04:59:59.450Z,98594.31
2019-04-29T05:02:31.549Z,98597.55
2019-04-29T05:05:03.671Z,98603.52
2019-04-29T05:07:35.683Z,98599.72
2019-04-29T05:10:07.637Z,98604.78
2019-04-29T05:12:39.671Z,98605.30
2019-04-29T05:15:11.856Z,98608.86
2019-04-29T05:17:44.037Z,98610.53
2019-04-29T05:20:15.971Z,98614.45
2019-04-29T05:23:00.027Z,98614.99
2019-04-29T05:25:32.828Z,98610.18
2019-04-29T05:28:04.977Z,98609.02
2019-04-29T05:30:36.936Z,98610.58
2019-04-29T05:33:08.901Z,98605.47
2019-04-29T05:36:09.511Z,98603.81
2019-04-29T05:38:51.479Z,98611.59
2019-04-29T05:41:24.997Z,98611.21
2019-04-29T05:44:19.055Z,98608.03
2019-04-29T05:46:56.669Z,98613.22
2019-04-29T05:49:42.916Z,98617.67
2019-04-29T05:52:39.543Z,98619.44
2019-04-29T05:55:13.772Z,98622.37
2019-04-29T05:57:45.302Z,98626.05
2019-04-29T06:00:22.878Z,98627.96
2019-04-29T06:02:52.429Z,98618.92
2019-04-29T06:05:24.384Z,98627.82
2019-04-29T06:08:01.195Z,98621.81
2019-04-29T06:10:31.066Z,98620.41
2019-04-29T06:13:03.042Z,98625.23
2019-04-29T06:15:35.055Z,98625.23
2019-04-29T06:18:07.036Z,98627.23
2019-04-29T06:20:38.996Z,98628.75
2019-04-29T06:23:10.974Z,98633.06
2019-04-29T06:25:42.934Z,98634.56
2019-04-29T06:28:14.997Z,98636.47
2019-04-29T06:30:50.089Z,98634.05
2019-04-29T06:33:24.309Z,98633.88
2019-04-29T06:35:57.058Z,98635.47
2019-04-29T06:38:28.660Z,98639.39
2019-04-29T06:41:00.656Z,98637.70
2019-04-29T06:43:32.656Z,98638.88
2019-04-29T06:46:04.588Z,98645.34
2019-04-29T06:48:36.720Z,98643.39
2019-04-29T06:51:08.862Z,98646.56
2019-04-29T06:53:40.947Z,98643.05
2019-04-29T06:56:13.020Z,98638.78
2019-04-29T06:58:45.078Z,98647.38
2019-04-29T07:01:17.146Z,98645.01
2019-04-29T07:03:49.185Z,98649.97
2019-04-29T07:06:21.204Z,98640.19
2019-04-29T07:08:53.154Z,98642.17
2019-04-29T07:11:25.133Z,98640.67
2019-04-29T07:13:57.685Z,98638.19
2019-04-29T07:16:32.088Z,98642.77
2019-04-29T07:19:04.111Z,98639.27
2019-04-29T07:21:36.089Z,98640.11
2019-04-29T07:24:08.047Z,98645.44
2019-04-29T07:26:40.040Z,98647.02
2019-04-29T07:29:12.019Z,98650.77
2019-04-29T07:31:43.998Z,98640.30
2019-04-29T07:34:15.963Z,98637.36
2019-04-29T07:36:47.964Z,98643.09
2019-04-29T07:39:19.952Z,98640.17
2019-04-29T07:41:53.714Z,98636.83
2019-04-29T07:44:42.779Z,98641.11
2019-04-29T07:47:02.528Z,98634.54
2019-04-29T07:49:34.598Z,98637.58
2019-04-29T07:52:09.797Z,98638.84
2019-04-29T07:54:40.475Z,98633.98
2019-04-29T07:57:16.400Z,98638.41
2019-04-29T07:59:46.342Z,98637.84
2019-04-29T08:02:18.360Z,98633.01
2019-04-29T08:04:50.323Z,98637.70
2019-04-29T08:07:23.020Z,98639.61
2019-04-29T08:09:55.071Z,98640.55
2019-04-29T08:12:27.568Z,98635.55
2019-04-29T08:15:07.623Z,98630.89
2019-04-29T08:17:33.919Z,98629.58
2019-04-29T08:20:06.481Z,98626.89
2019-04-29T08:22:38.520Z,98620.30
2019-04-29T08:25:10.486Z,98622.17
2019-04-29T08:27:43.856Z,98630.05
2019-04-29T08:30:18.260Z,98625.95
2019-04-29T08:32:49.956Z,98619.07
2019-04-29T08:35:21.894Z,98619.02
2019-04-29T08:37:53.889Z,98617.83
2019-04-29T08:40:25.855Z,98622.45
2019-04-29T08:43:20.595Z,98621.53
2019-04-29T08:45:58.718Z,98627.33
2019-04-29T08:48:30.719Z,98625.46
2019-04-29T08:51:02.688Z,98624.25
2019-04-29T08:53:34.737Z,98622.42
2019-04-29T08:56:10.164Z,98608.69
2019-04-29T08:58:44.217Z,98618.14
2019-04-29T09:01:14.473Z,98617.48
2019-04-29T09:03:46.433Z,98615.46
2019-04-29T09:06:18.357Z,98613.72
2019-04-29T09:08:55.402Z,98616.09
2019-04-29T09:11:24.218Z,98618.03
2019-04-29T09:13:56.207Z,98612.59
2019-04-29T09:16:28.183Z,98608.91
2019-04-29T09:19:00.172Z,98602.72
2019-04-29T09:21:32.135Z,98607.75
2019-04-29T09:24:04.181Z,98601.34
2019-04-29T09:26:44.205Z,98604.20
2019-04-29T09:29:35.228Z,98601.82
2019-04-29T09:32:07.192Z,98602.59
2019-04-29T09:34:39.167Z,98601.24
2019-04-29T09:37:11.125Z,98599.45
2019-04-29T09:39:45.001Z,98598.95
2019-04-29T09:42:37.815Z,98597.59
2019-04-29T09:45:24.548Z,98594.15
2019-04-29T09:47:56.634Z,98592.38
2019-04-29T09:50:28.700Z,98591.17
2019-04-29T09:53:00.746Z,98589.89
2019-04-29T09:55:35.698Z,98581.30
2019-04-29T09:58:06.640Z,98573.13
2019-04-29T10:01:01.219Z,98570.81
2019-04-29T10:03:51.418Z,98572.33
2019-04-29T10:06:26.924Z,98568.55
2019-04-29T10:08:58.890Z,98566.55
2019-04-29T10:11:30.835Z,98563.04
2019-04-29T10:14:02.805Z,98556.68
2019-04-29T10:16:54.377Z,98559.15
2019-04-29T10:19:32.125Z,98556.11
2019-04-29T10:22:04.135Z,98551.06
2019-04-29T10:24:36.100Z,98548.97
2019-04-29T10:27:08.115Z,98547.63
2019-04-29T10:29:41.980Z,98545.56
2019-04-29T10:32:14.030Z,98539.03
2019-04-29T10:34:46.047Z,98533.80
2019-04-29T10:37:18.019Z,98534.14
2019-04-29T10:40:21.710Z,98532.66
2019-04-29T10:43:17.185Z,98535.33
2019-04-29T10:46:21.205Z,98526.03
2019-04-29T10:48:58.988Z,98523.61
2019-04-29T10:51:31.879Z,98520.16
2019-04-29T10:54:04.083Z,98513.94
2019-04-29T10:56:39.499Z,98514.30
2019-04-29T10:59:11.172Z,98513.49
2019-04-29T11:02:33.505Z,98507.22
2019-04-29T11:05:36.282Z,98510.78
2019-04-29T11:08:18.581Z,98504.60
2019-04-29T11:10:50.775Z,98498.89
2019-04-29T11:13:22.748Z,98499.25
2019-04-29T11:15:54.745Z,98497.29
2019-04-29T11:18:26.736Z,98500.72
2019-04-29T11:20:58.756Z,98492.92
2019-04-29T11:23:46.007Z,98491.94
2019-04-29T11:26:36.239Z,98487.42
2019-04-29T11:29:09.502Z,98483.76
2019-04-29T11:31:41.816Z,98477.66
2019-04-29T11:34:42.717Z,98469.53
2019-04-29T11:37:17.895Z,98480.90
2019-04-29T11:39:51.685Z,98471.88
2019-04-29T11:42:23.929Z,98474.20
2019-04-29T11:44:57.065Z,98467.80
2019-04-29T11:47:30.193Z,98461.53
2019-04-29T11:50:26.911Z,98456.11
2019-04-29T11:52:58.551Z,98458.41
2019-04-29T11:55:30.545Z,98457.27
2019-04-29T11:58:08.382Z,98456.94
2019-04-29T12:01:17.994Z,98456.84
2019-04-29T12:03:51.372Z,98452.84
2019-04-29T12:06:24.754Z,98446.86
2019-04-29T12:08:56.893Z,98440.13
2019-04-29T12:11:35.878Z,98447.31
2019-04-29T12:14:18.608Z,98452.38
2019-04-29T12:16:59.171Z,98445.05
2019-04-29T12:19:32.918Z,98448.02
2019-04-29T12:22:08.934Z,98443.23
2019-04-29T12:24:39.022Z,98438.25
2019-04-29T12:27:14.812Z,98435.91
2019-04-29T12:29:48.816Z,98444.08
2019-04-29T12:32:27.105Z,98439.27
2019-04-29T12:35:11.541Z,98433.52
2019-04-29T12:38:18.517Z,98430.64
2019-04-29T12:41:20.658Z,98434.36
2019-04-29T12:44:00.129Z,98431.23
2019-04-29T12:47:00.851Z,98422.34
2019-04-29T12:49:32.852Z,98417.72
2019-04-29T12:52:04.821Z,98418.22
2019-04-29T12:54:36.809Z,98421.13
2019-04-29T12:57:09.071Z,98418.81
2019-04-29T12:59:42.531Z,98413.98
2019-04-29T13:02:40.388Z,98409.25
2019-04-29T13:05:41.828Z,98417.00
2019-04-29T13:08:27.111Z,98410.94
2019-04-29T13:11:01.532Z,98404.46
2019-04-29T13:13:33.578Z,98406.34
2019-04-29T13:16:23.717Z,98401.20
2019-04-29T13:19:16.420Z,98399.72
2019-04-29T13:21:46.458Z,98400.37
2019-04-29T13:24:26.013Z,98398.20
2019-04-29T13:26:52.531Z,98390.31
2019-04-29T13:29:27.328Z,98394.16
2019-04-29T13:32:01.641Z,98393.11
2019-04-29T13:34:37.290Z,98387.71
2019-04-29T13:37:18.304Z,98390.92
2019-04-29T13:39:43.234Z,98379.66
2019-04-29T13:42:15.955Z,98373.48
2019-04-29T13:45:05.645Z,98372.93
2019-04-29T13:47:49.959Z,98369.94
2019-04-29T13:50:38.914Z,98364.63
2019-04-29T13:52:57.715Z,98359.29
2019-04-29T13:55:47.279Z,98360.32
2019-04-29T13:58:03.724Z,98357.25
2019-04-29T14:00:55.673Z,98351.09
2019-04-29T14:03:42.110Z,98348.78
2019-04-29T14:06:18.422Z,98343.70
2019-04-29T14:08:48.354Z,98348.99
2019-04-29T14:11:21.988Z,98353.17
2019-04-29T14:13:54.294Z,98351.66
2019-04-29T14:16:26.264Z,98372.37
2019-04-29T14:18:58.312Z,98378.70
2019-04-29T14:21:31.820Z,98389.72
2019-04-29T14:24:04.002Z,98400.02
2019-04-29T14:26:36.889Z,98405.93
2019-04-29T14:29:09.967Z,98406.34
2019-04-29T14:31:41.975Z,98411.16
2019-04-29T14:34:20.783Z,98405.67
2019-04-29T14:36:57.476Z,98414.70
2019-04-29T14:39:36.734Z,98419.86
2019-04-29T14:42:05.065Z,98422.52
2019-04-29T14:44:50.406Z,98416.52
2019-04-29T14:47:40.715Z,98419.27
2019-04-29T14:50:15.599Z,98412.39
2019-04-29T14:52:49.362Z,98410.72
2019-04-29T14:55:25.489Z,98404.91
2019-04-29T14:57:54.747Z,98400.99
2019-04-29T15:00:49.296Z,98402.06
2019-04-29T15:03:22.605Z,98401.06
2019-04-29T15:05:54.682Z,98405.85
2019-04-29T15:08:26.758Z,98408.20
2019-04-29T15:10:58.860Z,98402.07
2019-04-29T15:13:31.000Z,98407.57
2019-04-29T15:16:13.673Z,98399.30
2019-04-29T15:18:51.105Z,98400.80
2019-04-29T15:21:45.073Z,98402.27
2019-04-29T15:24:17.619Z,98403.44
2019-04-29T15:26:49.745Z,98396.67
2019-04-29T15:29:21.751Z,98394.31
2019-04-29T15:31:53.697Z,98400.78
2019-04-29T15:34:25.830Z,98394.42
2019-04-29T15:36:57.794Z,98393.20
2019-04-29T15:39:29.841Z,98397.62
2019-04-29T15:42:06.189Z,98393.38
2019-04-29T15:44:35.923Z,98392.75
2019-04-29T15:47:07.840Z,98395.06
2019-04-29T15:49:39.902Z,98389.65
2019-04-29T15:52:11.888Z,98393.27
2019-04-29T15:54:45.941Z,98396.82
2019-04-29T15:57:17.890Z,98395.95
2019-04-29T15:59:58.890Z,98399.45
2019-04-29T16:02:24.079Z,98396.77
2019-04-29T16:05:04.571Z,98393.84
2019-04-29T16:07:55.673Z,98397.69
2019-04-29T16:10:59.734Z,98393.52
2019-04-29T16:13:31.748Z,98393.84
2019-04-29T16:16:03.785Z,98403.09
2019-04-29T16:18:35.795Z,98396.33
2019-04-29T16:21:07.845Z,98406.30
2019-04-29T16:23:40.356Z,98406.00
2019-04-29T16:26:12.461Z,98401.39
2019-04-29T16:28:44.912Z,98405.89
2019-04-29T16:31:17.060Z,98412.73
2019-04-29T16:33:54.691Z,98407.05
2019-04-29T16:36:22.971Z,98413.45
2019-04-29T16:38:54.997Z,98407.83
2019-04-29T16:42:01.739Z,98413.34
2019-04-29T16:47:13.211Z,98415.13
2019-04-29T16:49:43.220Z,98420.45
2019-04-29T16:52:15.242Z,98419.28
2019-04-29T16:54:47.320Z,98407.58
2019-04-29T16:57:19.343Z,98417.00
2019-04-29T16:59:51.349Z,98415.14
2019-04-29T17:02:23.968Z,98419.27
2019-04-29T17:04:56.000Z,98421.74
2019-04-29T17:07:28.111Z,98419.76
2019-04-29T17:10:14.839Z,98421.44
2019-04-29T17:12:49.199Z,98422.59
2019-04-29T17:15:25.563Z,98416.32
2019-04-29T17:17:55.279Z,98423.00
2019-04-29T17:20:27.523Z,98422.48
2019-04-29T17:22:59.523Z,98421.01
2019-04-29T17:25:31.652Z,98421.38
2019-04-29T17:28:24.259Z,98427.55
2019-04-29T17:31:12.722Z,98426.28
2019-04-29T17:33:50.428Z,98424.04
2019-04-29T17:35:14.348Z,98410.22
2019-04-29T17:36:24.084Z,98423.52
2019-04-29T17:38:56.608Z,98424.31
2019-04-29T17:41:28.675Z,98423.12
2019-04-29T17:44:14.478Z,98426.16
2019-04-29T17:47:11.547Z,98423.32
2019-04-29T17:50:06.532Z,98428.23
2019-04-29T17:52:38.315Z,98425.67
2019-04-29T17:55:37.668Z,98423.40
2019-04-29T17:58:20.707Z,98428.61
2019-04-29T18:01:25.993Z,98428.61
2019-04-29T18:04:19.973Z,98434.13
2019-04-29T18:07:08.113Z,98433.45
2019-04-29T18:09:49.654Z,98435.92
2019-04-29T18:12:22.519Z,98436.59
2019-04-29T18:14:55.119Z,98440.11
2019-04-29T18:17:31.498Z,98438.41
2019-04-29T18:20:30.851Z,98440.48
2019-04-29T18:23:21.308Z,98435.26
2019-04-29T18:25:57.837Z,98441.42
2019-04-29T18:28:30.107Z,98440.63
2019-04-29T18:31:03.160Z,98449.95
2019-04-29T18:33:35.267Z,98450.29
2019-04-29T18:36:10.579Z,98456.25
2019-04-29T18:38:42.398Z,98451.61
2019-04-29T18:41:24.314Z,98453.95
2019-04-29T18:43:49.228Z,98455.59
2019-04-29T18:46:21.331Z,98452.22
2019-04-29T18:48:55.934Z,98457.70
2019-04-29T18:51:28.797Z,98454.88
2019-04-29T18:54:01.107Z,98454.08
2019-04-29T18:56:36.264Z,98453.72
2019-04-29T18:59:07.280Z,98460.95
2019-04-29T19:01:39.264Z,98455.48
2019-04-29T19:04:26.624Z,98456.55
2019-04-29T19:07:02.177Z,98463.66
2019-04-29T19:09:35.753Z,98459.04
2019-04-29T19:12:08.587Z,98461.41
2019-04-29T19:14:40.697Z,98460.34
2019-04-29T19:17:12.852Z,98460.10
2019-04-29T19:19:45.282Z,98462.66
2019-04-29T19:22:17.493Z,98451.90
2019-04-29T19:24:49.632Z,98454.52
2019-04-29T19:27:21.653Z,98458.43
2019-04-29T19:29:55.067Z,98454.45
2019-04-29T19:32:27.663Z,98455.88
2019-04-29T19:34:59.831Z,98465.78
2019-04-29T19:37:32.534Z,98461.11
2019-04-29T19:40:08.202Z,98460.02
2019-04-29T19:42:40.986Z,98461.37
2019-04-29T19:45:15.432Z,98453.02
2019-04-29T19:47:53.042Z,98454.36
2019-04-29T19:50:21.322Z,98459.73
2019-04-29T19:52:55.345Z,98452.80
2019-04-29T19:55:27.824Z,98456.81
2019-04-29T19:58:00.616Z,98450.65
2019-04-29T20:00:33.618Z,98446.98
2019-04-29T20:03:20.495Z,98448.25
2019-04-29T20:05:46.670Z,98438.02
2019-04-29T20:08:37.377Z,98440.93
2019-04-29T20:10:53.453Z,98444.70
2019-04-29T20:13:31.292Z,98447.03
2019-04-29T20:16:22.745Z,98443.30
2019-04-29T20:19:02.718Z,98445.94
2019-04-29T20:21:36.452Z,98444.27
2019-04-29T20:24:09.331Z,98447.88
2019-04-29T20:26:44.241Z,98441.50
2019-04-29T20:29:16.837Z,98446.61
2019-04-29T20:31:52.847Z,98437.73
2019-04-29T20:34:24.438Z,98444.41
2019-04-29T20:36:56.804Z,98439.62
2019-04-29T20:39:29.002Z,98443.89
2019-04-29T20:42:06.454Z,98440.03
2019-04-29T20:44:36.957Z,98427.01
2019-04-29T20:47:19.587Z,98431.80
2019-04-29T20:49:43.245Z,98427.09
2019-04-29T20:52:44.381Z,98418.56
2019-04-29T20:55:16.858Z,98420.41
2019-04-29T20:57:52.497Z,98415.55
2019-04-29T21:00:24.939Z,98415.87
2019-04-29T21:02:57.173Z,98414.55
2019-04-29T21:05:29.456Z,98410.33
2019-04-29T21:08:03.422Z,98408.33
2019-04-29T21:10:37.994Z,98400.34
2019-04-29T21:13:23.666Z,98393.02
2019-04-29T21:16:02.578Z,98385.13
2019-04-29T21:18:35.696Z,98385.59
2019-04-29T21:21:08.496Z,98388.08
2019-04-29T21:23:40.510Z,98384.49
2019-04-29T21:26:12.556Z,98380.00
2019-04-29T21:28:45.310Z,98391.23
2019-04-29T21:31:20.013Z,98392.39
2019-04-29T21:33:55.403Z,98395.18
2019-04-29T21:36:45.336Z,98382.82
2019-04-29T21:39:36.425Z,98381.76
2019-04-29T21:42:16.419Z,98375.38
2019-04-29T21:44:48.399Z,98388.98
2019-04-29T21:47:21.739Z,98388.77
2019-04-29T21:49:56.272Z,98380.91
2019-04-29T21:52:27.628Z,98386.27
2019-04-29T21:54:59.618Z,98387.82
2019-04-29T21:57:31.589Z,98387.34
2019-04-29T22:00:05.672Z,98381.05
2019-04-29T22:02:41.445Z,98372.64
2019-04-29T22:05:14.816Z,98374.38
2019-04-29T22:07:47.511Z,98377.02
2019-04-29T22:10:23.867Z,98379.38
2019-04-29T22:12:58.324Z,98368.70
2019-04-29T22:15:32.824Z,98365.88
2019-04-29T22:18:01.808Z,98369.91
2019-04-29T22:20:41.989Z,98381.12
2019-04-29T22:23:13.268Z,98382.55
2019-04-29T22:25:45.776Z,98385.83
2019-04-29T22:28:19.798Z,98374.95
2019-04-29T22:30:54.788Z,98377.72
2019-04-29T22:33:25.265Z,98375.38
2019-04-29T22:35:57.408Z,98372.34
2019-04-29T22:38:29.372Z,98371.19
2019-04-29T22:41:04.954Z,98367.34
2019-04-29T22:43:48.658Z,98369.80
2019-04-29T22:46:20.681Z,98366.97
2019-04-29T22:48:52.659Z,98376.56
2019-04-29T22:51:25.463Z,98367.58
2019-04-29T22:53:57.636Z,98364.23
2019-04-29T22:56:29.617Z,98364.58
2019-04-29T22:59:01.619Z,98361.02
2019-04-29T23:01:35.837Z,98356.98
2019-04-29T23:04:09.675Z,98363.78
2019-04-29T23:06:46.626Z,98355.37
2019-04-29T23:09:15.284Z,98359.66
2019-04-29T23:11:47.507Z,98360.05
2019-04-29T23:14:19.596Z,98365.39
2019-04-29T23:16:51.585Z,98360.89
2019-04-29T23:19:23.534Z,98354.40
2019-04-29T23:22:16.889Z,98356.55
2019-04-29T23:25:05.715Z,98349.51
2019-04-29T23:27:37.721Z,98346.41
2019-04-29T23:30:13.611Z,98341.38
2019-04-29T23:32:47.637Z,98340.30
2019-04-29T23:35:19.669Z,98333.72
2019-04-29T23:37:51.741Z,98331.23
2019-04-29T23:40:23.689Z,98333.23
2019-04-29T23:42:57.469Z,98327.55
2019-04-29T23:45:29.571Z,98325.88
2019-04-29T23:48:01.537Z,98325.41
2019-04-29T23:50:35.770Z,98323.07
2019-04-29T23:53:07.386Z,98326.39
2019-04-29T23:55:39.353Z,98324.72
2019-04-29T23:58:37.250Z,98316.63
